Frankfort Heights, Illinois
Current Conditions -  °F | °C
As of 5:52 PM on Sunday 21 Dec 2014 (Local Time) from KMWA Reporting Station
Scattered Clouds Scattered Clouds  
Wind Chill: 35°   Ceiling: Unl
Heat Index: 41°   Visibility: 15mi
Dew Point: 32°   Wind: 9mph
Humidity: 70%   Direction: 70°ENE
Pressure: 30.06"   Gusts: NA
Location:  37.9°N, 88.89°W
Report Text: KMWA 212352Z 07008KT 15SM SCT250 05/00 A3006
Loading
Personal Weather Stations






























Interactive Weather Map New forecast layout! Learn more

10-Day Weather Forecast

Advertisements
Track Severe Weather on mobile